createdAt,value
2023-03-26T00:01:40.419Z,88.03
2023-03-26T00:04:08.541Z,88.07
2023-03-26T00:06:39.929Z,88.51
2023-03-26T00:09:13.779Z,88.72
2023-03-26T00:11:42.978Z,88.67
2023-03-26T00:14:14.140Z,88.49
2023-03-26T00:16:42.912Z,88.66
2023-03-26T00:19:12.835Z,89.02
2023-03-26T00:21:41.702Z,88.97
2023-03-26T00:24:15.390Z,88.83
2023-03-26T00:26:53.431Z,88.87
2023-03-26T00:29:28.172Z,88.80
2023-03-26T00:31:56.417Z,88.96
2023-03-26T00:34:24.966Z,89.02
2023-03-26T00:36:55.028Z,89.51
2023-03-26T00:39:25.765Z,89.67
2023-03-26T00:41:54.723Z,89.52
2023-03-26T00:44:23.468Z,89.38
2023-03-26T00:46:51.679Z,89.17
2023-03-26T00:49:20.071Z,89.24
2023-03-26T00:51:48.315Z,89.34
2023-03-26T00:54:16.573Z,89.50
2023-03-26T00:56:45.453Z,89.47
2023-03-26T00:59:13.590Z,89.28
2023-03-26T01:01:41.732Z,89.46
2023-03-26T01:04:31.022Z,89.41
2023-03-26T01:07:04.912Z,89.93
2023-03-26T01:09:36.178Z,90.06
2023-03-26T01:12:07.046Z,89.92
2023-03-26T01:14:35.780Z,89.68
2023-03-26T01:17:07.070Z,89.39
2023-03-26T01:19:54.378Z,89.24
2023-03-26T01:22:25.604Z,89.28
2023-03-26T01:24:56.635Z,88.98
2023-03-26T01:27:35.829Z,88.89
2023-03-26T01:30:05.012Z,88.62
2023-03-26T01:33:07.414Z,88.44
2023-03-26T01:35:52.891Z,88.63
2023-03-26T01:39:00.572Z,88.68
2023-03-26T01:41:54.015Z,88.65
2023-03-26T01:44:39.994Z,88.68
2023-03-26T01:47:09.828Z,88.80
2023-03-26T01:49:38.251Z,89.17
2023-03-26T01:52:19.609Z,89.19
2023-03-26T01:54:48.157Z,89.38
2023-03-26T01:57:38.133Z,89.46
2023-03-26T02:00:24.120Z,89.47
2023-03-26T02:02:55.233Z,89.60
2023-03-26T02:05:33.631Z,89.34
2023-03-26T02:08:05.534Z,89.24
2023-03-26T02:10:38.225Z,89.14
2023-03-26T02:13:07.043Z,89.62
2023-03-26T02:15:35.189Z,89.16
2023-03-26T02:18:04.260Z,89.25
2023-03-26T02:20:34.127Z,89.27
2023-03-26T02:23:02.157Z,88.93
2023-03-26T02:25:30.452Z,88.68
2023-03-26T02:27:59.138Z,88.59
2023-03-26T02:30:29.897Z,88.44
2023-03-26T02:33:00.184Z,88.33
2023-03-26T02:35:35.543Z,88.32
2023-03-26T02:38:03.828Z,88.30
2023-03-26T02:40:36.716Z,88.14
2023-03-26T02:43:14.052Z,88.10
2023-03-26T02:45:48.090Z,88.14
2023-03-26T02:48:38.467Z,87.95
2023-03-26T02:51:18.383Z,87.70
2023-03-26T02:54:02.109Z,87.47
2023-03-26T02:56:33.584Z,87.56
2023-03-26T02:59:14.906Z,87.40
2023-03-26T03:01:44.828Z,87.34
2023-03-26T03:04:14.211Z,87.46
2023-03-26T03:06:50.261Z,87.27
2023-03-26T03:09:19.105Z,87.25
2023-03-26T03:12:08.487Z,86.93
2023-03-26T03:14:37.860Z,86.74
2023-03-26T03:17:06.525Z,86.74
2023-03-26T03:19:34.477Z,86.98
2023-03-26T03:22:02.946Z,86.79
2023-03-26T03:24:34.155Z,86.70
2023-03-26T03:27:02.172Z,86.80
2023-03-26T03:29:41.469Z,86.98
2023-03-26T03:32:44.819Z,87.27
2023-03-26T03:35:14.150Z,88.00
2023-03-26T03:37:43.777Z,87.77
2023-03-26T03:40:12.513Z,87.46
2023-03-26T03:42:40.877Z,87.36
2023-03-26T03:45:10.467Z,87.41
2023-03-26T03:47:58.790Z,87.43
2023-03-26T03:50:35.453Z,87.79
2023-03-26T03:53:27.172Z,88.08
2023-03-26T03:55:56.883Z,88.28
2023-03-26T03:58:31.200Z,88.35
2023-03-26T04:01:04.739Z,88.57
2023-03-26T04:03:53.177Z,88.56
2023-03-26T04:06:25.320Z,88.41
2023-03-26T04:08:53.915Z,88.70
2023-03-26T04:11:22.673Z,88.81
2023-03-26T04:14:18.312Z,88.90
2023-03-26T04:17:02.246Z,88.97
2023-03-26T04:19:31.427Z,88.83
2023-03-26T04:22:02.905Z,89.60
2023-03-26T04:24:34.271Z,90.00
2023-03-26T04:27:08.843Z,90.25
2023-03-26T04:29:44.200Z,90.24
2023-03-26T04:32:30.474Z,89.90
2023-03-26T04:35:00.309Z,89.70
2023-03-26T04:37:40.212Z,89.66
2023-03-26T04:40:22.047Z,90.22
2023-03-26T04:43:16.521Z,90.22
2023-03-26T04:46:04.926Z,90.13
2023-03-26T04:48:41.198Z,90.22
2023-03-26T04:51:20.404Z,89.89
2023-03-26T04:53:54.554Z,90.01
2023-03-26T04:56:39.114Z,89.74
2023-03-26T04:59:37.546Z,89.85
2023-03-26T05:02:10.793Z,90.12
2023-03-26T05:04:47.156Z,90.32
2023-03-26T05:07:19.852Z,90.64
2023-03-26T05:09:51.147Z,90.93
2023-03-26T05:12:57.575Z,90.72
2023-03-26T05:15:33.557Z,90.63
2023-03-26T05:18:09.029Z,90.73
2023-03-26T05:20:46.433Z,90.57
2023-03-26T05:23:14.611Z,90.34
2023-03-26T05:25:50.886Z,90.34
2023-03-26T05:28:24.497Z,90.36
2023-03-26T05:30:56.514Z,90.21
2023-03-26T05:33:26.357Z,90.12
2023-03-26T05:36:09.301Z,89.72
2023-03-26T05:38:37.444Z,89.34
2023-03-26T05:41:09.426Z,89.27
2023-03-26T05:43:39.667Z,88.91
2023-03-26T05:46:18.208Z,89.15
2023-03-26T05:48:46.698Z,89.05
2023-03-26T05:51:15.774Z,88.48
2023-03-26T05:53:49.484Z,87.90
2023-03-26T05:56:57.342Z,87.69
2023-03-26T05:59:48.423Z,87.34
2023-03-26T06:02:36.108Z,87.06
2023-03-26T06:05:18.321Z,86.96
2023-03-26T06:07:46.341Z,86.84
2023-03-26T06:10:18.008Z,86.48
2023-03-26T06:12:46.978Z,86.33
2023-03-26T06:15:15.747Z,85.45
2023-03-26T06:17:49.422Z,85.13
2023-03-26T06:20:35.715Z,84.88
2023-03-26T06:23:09.968Z,84.88
2023-03-26T06:26:06.646Z,84.63
2023-03-26T06:29:00.575Z,84.82
2023-03-26T06:31:49.085Z,84.20
2023-03-26T06:34:32.638Z,83.69
2023-03-26T06:37:00.729Z,82.80
2023-03-26T06:39:29.414Z,81.42
2023-03-26T06:42:15.389Z,80.42
2023-03-26T06:44:49.360Z,80.30
2023-03-26T06:47:35.844Z,80.56
2023-03-26T06:50:32.275Z,80.16
2023-03-26T06:53:13.597Z,79.57
2023-03-26T06:55:54.649Z,79.78
2023-03-26T06:58:48.771Z,79.83
2023-03-26T07:01:35.889Z,78.91
2023-03-26T07:04:22.416Z,77.78
2023-03-26T07:07:16.644Z,77.54
2023-03-26T07:10:06.072Z,77.49
2023-03-26T07:12:37.010Z,77.56
2023-03-26T07:15:24.115Z,77.61
2023-03-26T07:18:11.503Z,77.66
2023-03-26T07:20:42.555Z,77.55
2023-03-26T07:23:15.642Z,77.29
2023-03-26T07:25:55.568Z,76.80
2023-03-26T07:29:04.057Z,76.93
2023-03-26T07:32:10.809Z,76.82
2023-03-26T07:35:10.398Z,76.46
2023-03-26T07:38:33.066Z,77.03
2023-03-26T07:41:30.859Z,76.92
2023-03-26T07:44:27.669Z,76.38
2023-03-26T07:47:32.555Z,76.45
2023-03-26T07:50:25.599Z,76.89
2023-03-26T07:53:05.886Z,76.98
2023-03-26T07:56:08.057Z,76.18
2023-03-26T07:58:38.943Z,75.95
2023-03-26T08:01:50.572Z,75.66
2023-03-26T08:04:41.669Z,75.87
2023-03-26T08:08:13.817Z,76.59
2023-03-26T08:11:28.142Z,76.90
2023-03-26T08:14:33.522Z,76.69
2023-03-26T08:17:19.759Z,76.11
2023-03-26T08:19:58.213Z,75.49
2023-03-26T08:22:31.367Z,75.70
2023-03-26T08:25:05.363Z,75.47
2023-03-26T08:27:44.260Z,75.34
2023-03-26T08:30:23.605Z,74.86
2023-03-26T08:32:58.738Z,74.06
2023-03-26T08:35:28.011Z,73.80
2023-03-26T08:37:55.977Z,73.88
2023-03-26T08:41:05.342Z,73.88
2023-03-26T08:43:37.414Z,73.23
2023-03-26T08:46:15.329Z,72.88
2023-03-26T08:49:21.053Z,72.70
2023-03-26T08:52:08.298Z,71.18
2023-03-26T08:54:42.418Z,71.72
2023-03-26T08:57:42.611Z,71.72
2023-03-26T09:00:35.885Z,70.78
2023-03-26T09:03:25.429Z,70.25
2023-03-26T09:06:18.033Z,69.59
2023-03-26T09:09:07.415Z,68.70
2023-03-26T09:11:54.391Z,66.68
2023-03-26T09:14:40.686Z,66.29
2023-03-26T09:17:52.014Z,65.48
2023-03-26T09:20:54.760Z,65.47
2023-03-26T09:23:52.780Z,65.03
2023-03-26T09:26:45.915Z,64.96
2023-03-26T09:29:55.640Z,64.63
2023-03-26T09:32:32.766Z,63.93
2023-03-26T09:35:21.120Z,63.49
2023-03-26T09:38:03.515Z,62.98
2023-03-26T09:40:44.141Z,62.68
2023-03-26T09:43:43.363Z,62.83
2023-03-26T09:46:17.638Z,63.21
2023-03-26T09:49:17.526Z,63.21
2023-03-26T09:52:03.277Z,63.29
2023-03-26T09:55:01.629Z,62.58
2023-03-26T09:57:51.311Z,62.09
2023-03-26T10:00:45.114Z,62.82
2023-03-26T10:03:35.093Z,62.47
2023-03-26T10:06:21.518Z,62.06
2023-03-26T10:08:52.492Z,61.19
2023-03-26T10:11:33.261Z,59.73
2023-03-26T10:14:18.996Z,57.24
2023-03-26T10:16:52.690Z,56.27
2023-03-26T10:19:36.134Z,56.73
2023-03-26T10:22:25.765Z,56.58
2023-03-26T10:25:03.721Z,55.12
2023-03-26T10:28:04.039Z,54.89
2023-03-26T10:30:58.399Z,53.89
2023-03-26T10:34:28.747Z,52.79
2023-03-26T10:37:31.961Z,52.21
2023-03-26T10:40:26.236Z,53.10
2023-03-26T10:43:12.460Z,53.15
2023-03-26T10:45:45.413Z,53.37
2023-03-26T10:48:49.085Z,53.48
2023-03-26T10:51:20.071Z,53.19
2023-03-26T10:53:54.899Z,52.48
2023-03-26T10:56:49.463Z,52.49
2023-03-26T10:59:19.111Z,52.18
2023-03-26T11:02:29.094Z,51.46
2023-03-26T11:05:18.082Z,51.19
2023-03-26T11:07:56.222Z,50.69
2023-03-26T11:10:30.350Z,50.18
2023-03-26T11:13:23.167Z,50.10
2023-03-26T11:16:02.898Z,50.01
2023-03-26T11:18:43.262Z,50.05
2023-03-26T11:21:19.854Z,50.24
2023-03-26T11:24:05.338Z,50.37
2023-03-26T11:26:44.508Z,50.83
2023-03-26T11:29:37.000Z,50.88
2023-03-26T11:32:18.011Z,50.50
2023-03-26T11:35:00.915Z,50.78
2023-03-26T11:37:46.466Z,50.24
2023-03-26T11:40:21.554Z,49.41
2023-03-26T11:42:54.284Z,49.36
2023-03-26T11:45:27.654Z,48.84
2023-03-26T11:48:28.899Z,48.64
2023-03-26T11:51:04.516Z,49.18
2023-03-26T11:53:38.598Z,49.01
2023-03-26T11:56:31.038Z,49.38
2023-03-26T11:59:07.144Z,49.31
2023-03-26T12:01:50.491Z,49.13
2023-03-26T12:04:26.567Z,48.97
2023-03-26T12:06:57.707Z,49.07
2023-03-26T12:09:26.784Z,48.90
2023-03-26T12:12:03.393Z,47.76
2023-03-26T12:14:34.631Z,48.03
2023-03-26T12:17:14.443Z,49.58
2023-03-26T12:19:45.515Z,52.04
2023-03-26T12:22:40.263Z,54.14
2023-03-26T12:25:21.575Z,54.24
2023-03-26T12:28:02.885Z,54.81
2023-03-26T12:30:37.466Z,54.59
2023-03-26T12:33:28.935Z,55.56
2023-03-26T12:35:58.507Z,55.92
2023-03-26T12:38:37.466Z,56.83
2023-03-26T12:44:46.932Z,57.38
2023-03-26T12:44:59.227Z,55.92
2023-03-26T12:48:01.349Z,55.54
2023-03-26T12:50:34.063Z,54.77
2023-03-26T12:53:19.473Z,54.68
2023-03-26T12:56:09.421Z,54.84
2023-03-26T12:58:51.481Z,55.04
2023-03-26T13:01:50.548Z,55.40
2023-03-26T13:04:40.261Z,55.50
2023-03-26T13:07:29.096Z,56.21
2023-03-26T13:10:19.755Z,55.52
2023-03-26T13:12:59.657Z,54.10
2023-03-26T13:15:53.169Z,54.03
2023-03-26T13:18:43.555Z,54.43
2023-03-26T13:21:17.425Z,53.59
2023-03-26T13:23:59.152Z,52.33
2023-03-26T13:27:12.525Z,51.86
2023-03-26T13:30:07.995Z,51.62
2023-03-26T13:33:01.278Z,50.64
2023-03-26T13:36:21.883Z,49.24
2023-03-26T13:39:20.368Z,48.27
2023-03-26T13:41:58.606Z,48.15
2023-03-26T13:45:04.423Z,48.04
2023-03-26T13:47:38.623Z,46.35
2023-03-26T13:50:14.505Z,45.51
2023-03-26T13:52:53.023Z,45.21
2023-03-26T13:55:52.076Z,45.05
2023-03-26T13:58:36.455Z,44.30
2023-03-26T14:01:17.699Z,44.95
2023-03-26T14:04:03.522Z,45.26
2023-03-26T14:06:47.700Z,44.99
2023-03-26T14:09:34.711Z,45.24
2023-03-26T14:12:31.798Z,45.79
2023-03-26T14:15:05.592Z,46.11
2023-03-26T14:17:51.178Z,46.13
2023-03-26T14:20:40.241Z,45.93
2023-03-26T14:23:37.947Z,44.93
2023-03-26T14:26:25.179Z,44.04
2023-03-26T14:29:12.016Z,43.71
2023-03-26T14:31:52.078Z,44.15
2023-03-26T14:34:54.269Z,44.26
2023-03-26T14:37:34.756Z,44.57
2023-03-26T14:40:16.727Z,44.19
2023-03-26T14:43:01.577Z,43.38
2023-03-26T14:45:49.207Z,43.28
2023-03-26T14:48:51.370Z,43.22
2023-03-26T14:51:57.183Z,43.04
2023-03-26T14:54:28.355Z,43.00
2023-03-26T14:57:32.567Z,43.35
2023-03-26T15:00:41.995Z,42.76
2023-03-26T15:03:09.950Z,42.79
2023-03-26T15:05:43.761Z,42.69
2023-03-26T15:08:39.249Z,42.62
2023-03-26T15:11:25.483Z,43.51
2023-03-26T15:14:03.979Z,43.09
2023-03-26T15:17:11.374Z,43.37
2023-03-26T15:19:59.052Z,43.32
2023-03-26T15:23:00.703Z,43.14
2023-03-26T15:26:00.699Z,43.58
2023-03-26T15:28:46.980Z,43.15
2023-03-26T15:31:24.267Z,42.92
2023-03-26T15:34:19.967Z,42.81
2023-03-26T15:36:58.948Z,43.37
2023-03-26T15:39:59.948Z,43.48
2023-03-26T15:42:45.741Z,43.30
2023-03-26T15:45:35.353Z,42.95
2023-03-26T15:48:27.495Z,42.91
2023-03-26T15:51:14.482Z,43.22
2023-03-26T15:54:07.429Z,42.56
2023-03-26T15:56:56.662Z,42.22
2023-03-26T15:59:37.296Z,42.89
2023-03-26T16:02:34.909Z,43.17
2023-03-26T16:05:03.231Z,43.16
2023-03-26T16:07:52.635Z,43.36
2023-03-26T16:10:40.798Z,43.49
2023-03-26T16:13:31.443Z,43.81
2023-03-26T16:16:02.450Z,43.97
2023-03-26T16:18:37.298Z,43.89
2023-03-26T16:21:37.360Z,44.33
2023-03-26T16:24:10.258Z,44.77
2023-03-26T16:26:44.264Z,45.37
2023-03-26T16:29:18.320Z,45.63
2023-03-26T16:32:29.826Z,46.04
2023-03-26T16:35:10.006Z,46.47
2023-03-26T16:37:46.073Z,46.88
2023-03-26T16:40:23.612Z,47.17
2023-03-26T16:43:01.615Z,47.50
2023-03-26T16:45:48.041Z,47.94
2023-03-26T16:48:37.847Z,48.26
2023-03-26T16:51:39.800Z,48.56
2023-03-26T16:54:32.295Z,48.70
2023-03-26T16:57:16.305Z,48.61
2023-03-26T17:00:06.756Z,48.79
2023-03-26T17:02:41.774Z,48.52
2023-03-26T17:05:41.182Z,48.63
2023-03-26T17:08:38.565Z,49.08
2023-03-26T17:11:38.494Z,49.26
2023-03-26T17:14:22.516Z,49.34
2023-03-26T17:17:07.342Z,49.45
2023-03-26T17:20:09.324Z,49.45
2023-03-26T17:22:52.157Z,49.51
2023-03-26T17:25:45.936Z,49.42
2023-03-26T17:28:39.638Z,49.42
2023-03-26T17:31:26.461Z,49.67
2023-03-26T17:33:54.709Z,49.97
2023-03-26T17:36:41.558Z,50.15
2023-03-26T17:39:20.380Z,50.43
2023-03-26T17:42:13.337Z,50.66
2023-03-26T17:44:55.837Z,51.04
2023-03-26T17:47:38.174Z,51.67
2023-03-26T17:50:22.785Z,51.93
2023-03-26T17:52:56.535Z,52.46
2023-03-26T17:55:30.972Z,53.02
2023-03-26T17:58:05.287Z,53.49
2023-03-26T18:00:42.416Z,53.55
2023-03-26T18:03:44.046Z,54.14
2023-03-26T18:06:41.240Z,54.94
2023-03-26T18:09:34.053Z,55.16
2023-03-26T18:12:41.510Z,55.11
2023-03-26T18:15:34.862Z,55.66
2023-03-26T18:18:18.071Z,55.84
2023-03-26T18:20:49.302Z,56.26
2023-03-26T18:23:26.858Z,57.24
2023-03-26T18:26:32.574Z,57.11
2023-03-26T18:29:16.121Z,57.39
2023-03-26T18:31:46.158Z,57.35
2023-03-26T18:34:20.753Z,57.34
2023-03-26T18:36:58.075Z,57.79
2023-03-26T18:39:29.214Z,58.06
2023-03-26T18:41:58.427Z,58.18
2023-03-26T18:44:27.479Z,58.72
2023-03-26T18:47:12.993Z,58.96
2023-03-26T18:49:45.183Z,59.23
2023-03-26T18:52:16.919Z,59.44
2023-03-26T18:54:50.398Z,59.68
2023-03-26T18:57:26.969Z,59.65
2023-03-26T19:00:18.512Z,59.78
2023-03-26T19:02:50.011Z,59.93
2023-03-26T19:05:19.732Z,60.13
2023-03-26T19:07:48.482Z,60.14
2023-03-26T19:10:21.450Z,60.51
2023-03-26T19:13:02.077Z,60.28
2023-03-26T19:15:35.466Z,60.45
2023-03-26T19:18:09.940Z,60.64
2023-03-26T19:20:45.268Z,60.87
2023-03-26T19:23:17.839Z,60.61
2023-03-26T19:25:52.049Z,60.60
2023-03-26T19:28:24.582Z,60.80
2023-03-26T19:30:56.308Z,61.13
2023-03-26T19:33:32.667Z,61.49
2023-03-26T19:36:16.074Z,61.56
2023-03-26T19:38:53.402Z,61.51
2023-03-26T19:41:26.675Z,61.55
2023-03-26T19:43:58.901Z,61.89
2023-03-26T19:46:32.219Z,62.07
2023-03-26T19:49:00.303Z,62.03
2023-03-26T19:51:34.630Z,62.04
2023-03-26T19:54:12.601Z,61.87
2023-03-26T19:56:40.709Z,62.27
2023-03-26T19:59:08.820Z,62.38
2023-03-26T20:01:37.510Z,62.68
2023-03-26T20:04:10.092Z,62.74
2023-03-26T20:06:43.617Z,63.52
2023-03-26T20:09:13.326Z,63.96
2023-03-26T20:11:42.354Z,64.49
2023-03-26T20:14:16.700Z,64.99
2023-03-26T20:16:45.621Z,65.40
2023-03-26T20:19:15.394Z,65.13
2023-03-26T20:21:44.895Z,65.17
2023-03-26T20:24:17.916Z,65.35
2023-03-26T20:26:46.533Z,66.06
2023-03-26T20:29:15.081Z,65.79
2023-03-26T20:31:44.348Z,65.73
2023-03-26T20:34:21.996Z,65.64
2023-03-26T20:37:01.154Z,66.24
2023-03-26T20:39:29.691Z,66.75
2023-03-26T20:41:57.744Z,66.50
2023-03-26T20:44:27.491Z,66.19
2023-03-26T20:46:57.370Z,66.66
2023-03-26T20:49:25.822Z,66.80
2023-03-26T20:51:54.299Z,66.64
2023-03-26T20:54:24.629Z,67.37
2023-03-26T20:56:54.450Z,66.99
2023-03-26T20:59:26.682Z,66.49
2023-03-26T21:01:57.585Z,66.35
2023-03-26T21:04:27.412Z,66.76
2023-03-26T21:07:06.704Z,66.89
2023-03-26T21:09:39.652Z,66.93
2023-03-26T21:12:16.992Z,66.80
2023-03-26T21:14:47.596Z,66.94
2023-03-26T21:17:22.622Z,67.30
2023-03-26T21:19:50.806Z,67.56
2023-03-26T21:22:36.213Z,67.22
2023-03-26T21:25:17.521Z,66.95
2023-03-26T21:28:22.219Z,66.44
2023-03-26T21:30:55.908Z,66.34
2023-03-26T21:33:24.070Z,66.41
2023-03-26T21:35:52.704Z,66.03
2023-03-26T21:38:21.582Z,65.99
2023-03-26T21:40:58.643Z,65.60
2023-03-26T21:43:27.309Z,65.27
2023-03-26T21:45:57.461Z,65.21
2023-03-26T21:48:25.792Z,64.77
2023-03-26T21:50:54.033Z,64.58
2023-03-26T21:53:22.687Z,64.57
2023-03-26T21:56:02.055Z,64.49
2023-03-26T21:58:36.055Z,64.25
2023-03-26T22:01:27.722Z,64.01
2023-03-26T22:04:10.401Z,63.80
2023-03-26T22:06:46.210Z,63.66
2023-03-26T22:09:20.725Z,63.54
2023-03-26T22:11:54.483Z,63.34
2023-03-26T22:14:22.381Z,63.40
2023-03-26T22:16:50.297Z,63.65
2023-03-26T22:19:18.248Z,63.60
2023-03-26T22:21:46.312Z,63.50
2023-03-26T22:24:14.207Z,63.56
2023-03-26T22:26:42.122Z,63.39
2023-03-26T22:29:10.211Z,63.32
2023-03-26T22:31:39.401Z,63.24
2023-03-26T22:34:07.968Z,63.36
2023-03-26T22:36:37.259Z,63.18
2023-03-26T22:39:07.299Z,62.97
2023-03-26T22:41:35.240Z,62.52
2023-03-26T22:44:16.729Z,62.40
2023-03-26T22:46:51.453Z,62.25
2023-03-26T22:49:20.173Z,61.91
2023-03-26T22:51:48.202Z,61.92
2023-03-26T22:54:16.051Z,61.44
2023-03-26T22:56:44.078Z,61.46
2023-03-26T22:59:12.124Z,61.64
2023-03-26T23:01:40.471Z,61.96
2023-03-26T23:04:08.416Z,61.96
2023-03-26T23:06:36.309Z,62.08
2023-03-26T23:09:07.159Z,62.49
2023-03-26T23:11:35.064Z,62.79
2023-03-26T23:14:02.966Z,62.76
2023-03-26T23:16:31.785Z,62.81
2023-03-26T23:18:59.716Z,63.00
2023-03-26T23:21:27.706Z,63.09
2023-03-26T23:23:55.749Z,63.23
2023-03-26T23:26:24.560Z,63.52
2023-03-26T23:28:52.576Z,64.08
2023-03-26T23:31:20.540Z,64.19
2023-03-26T23:33:50.507Z,64.32
2023-03-26T23:36:20.179Z,64.27
2023-03-26T23:38:49.045Z,64.20
2023-03-26T23:41:21.625Z,64.31
2023-03-26T23:43:53.610Z,63.81
2023-03-26T23:46:30.265Z,63.76
2023-03-26T23:49:04.767Z,63.64
2023-03-26T23:51:33.223Z,63.27
2023-03-26T23:54:01.661Z,63.50
2023-03-26T23:56:30.035Z,63.60
2023-03-26T23:58:59.444Z,63.42
